sensor_id;sensor_type;location;lat;lon;timestamp;P1;durP1;ratioP1;P2;durP2;ratioP2
16468;SDS011;8345;50.902;6.956;2023-02-21T00:02:41;28.63;;;19.73;;
16468;SDS011;8345;50.902;6.956;2023-02-21T00:05:26;27.97;;;19.33;;
16468;SDS011;8345;50.902;6.956;2023-02-21T00:08:11;27.53;;;19.63;;
16468;SDS011;8345;50.902;6.956;2023-02-21T00:10:56;31.90;;;21.07;;
16468;SDS011;8345;50.902;6.956;2023-02-21T00:13:42;27.37;;;19.00;;
16468;SDS011;8345;50.902;6.956;2023-02-21T00:16:26;25.73;;;19.50;;
16468;SDS011;8345;50.902;6.956;2023-02-21T00:19:11;26.20;;;19.50;;
16468;SDS011;8345;50.902;6.956;2023-02-21T00:21:56;27.97;;;20.57;;
16468;SDS011;8345;50.902;6.956;2023-02-21T00:24:41;26.70;;;19.50;;
16468;SDS011;8345;50.902;6.956;2023-02-21T00:27:25;28.17;;;20.53;;
16468;SDS011;8345;50.902;6.956;2023-02-21T00:30:13;25.97;;;19.57;;
16468;SDS011;8345;50.902;6.956;2023-02-21T00:32:58;27.43;;;19.70;;
16468;SDS011;8345;50.902;6.956;2023-02-21T00:35:43;27.10;;;19.00;;
16468;SDS011;8345;50.902;6.956;2023-02-21T00:38:28;28.07;;;20.50;;
16468;SDS011;8345;50.902;6.956;2023-02-21T00:41:13;27.07;;;19.53;;
16468;SDS011;8345;50.902;6.956;2023-02-21T00:43:58;27.33;;;19.30;;
16468;SDS011;8345;50.902;6.956;2023-02-21T00:46:44;26.73;;;19.10;;
16468;SDS011;8345;50.902;6.956;2023-02-21T00:49:29;23.40;;;18.40;;
16468;SDS011;8345;50.902;6.956;2023-02-21T00:52:13;26.63;;;19.80;;
16468;SDS011;8345;50.902;6.956;2023-02-21T00:54:58;25.57;;;19.20;;
16468;SDS011;8345;50.902;6.956;2023-02-21T00:57:43;25.60;;;18.97;;
16468;SDS011;8345;50.902;6.956;2023-02-21T01:00:28;25.93;;;19.17;;
16468;SDS011;8345;50.902;6.956;2023-02-21T01:03:14;27.07;;;20.17;;
16468;SDS011;8345;50.902;6.956;2023-02-21T01:05:59;25.73;;;18.90;;
16468;SDS011;8345;50.902;6.956;2023-02-21T01:08:44;26.53;;;18.83;;
16468;SDS011;8345;50.902;6.956;2023-02-21T01:11:30;31.40;;;20.30;;
16468;SDS011;8345;50.902;6.956;2023-02-21T01:14:15;25.27;;;18.63;;
16468;SDS011;8345;50.902;6.956;2023-02-21T01:17:00;25.50;;;18.87;;
16468;SDS011;8345;50.902;6.956;2023-02-21T01:19:46;28.20;;;19.13;;
16468;SDS011;8345;50.902;6.956;2023-02-21T01:22:31;24.33;;;18.87;;
16468;SDS011;8345;50.902;6.956;2023-02-21T01:25:16;25.77;;;18.33;;
16468;SDS011;8345;50.902;6.956;2023-02-21T01:28:00;26.67;;;19.10;;
16468;SDS011;8345;50.902;6.956;2023-02-21T01:30:45;26.90;;;19.50;;
16468;SDS011;8345;50.902;6.956;2023-02-21T01:33:33;26.93;;;19.10;;
16468;SDS011;8345;50.902;6.956;2023-02-21T01:36:19;24.83;;;18.53;;
16468;SDS011;8345;50.902;6.956;2023-02-21T01:39:04;22.87;;;18.53;;
16468;SDS011;8345;50.902;6.956;2023-02-21T01:41:49;26.40;;;18.47;;
16468;SDS011;8345;50.902;6.956;2023-02-21T01:44:35;25.00;;;18.67;;
16468;SDS011;8345;50.902;6.956;2023-02-21T01:47:20;25.60;;;18.83;;
16468;SDS011;8345;50.902;6.956;2023-02-21T01:50:06;25.23;;;18.67;;
16468;SDS011;8345;50.902;6.956;2023-02-21T01:52:54;24.00;;;19.47;;
16468;SDS011;8345;50.902;6.956;2023-02-21T01:55:39;27.57;;;19.20;;
16468;SDS011;8345;50.902;6.956;2023-02-21T01:58:26;26.17;;;19.37;;
16468;SDS011;8345;50.902;6.956;2023-02-21T02:01:18;25.50;;;18.80;;
16468;SDS011;8345;50.902;6.956;2023-02-21T02:04:04;26.87;;;18.57;;
16468;SDS011;8345;50.902;6.956;2023-02-21T02:06:48;25.97;;;19.30;;
16468;SDS011;8345;50.902;6.956;2023-02-21T02:09:35;27.53;;;18.60;;
16468;SDS011;8345;50.902;6.956;2023-02-21T02:12:29;24.43;;;17.63;;
16468;SDS011;8345;50.902;6.956;2023-02-21T02:15:07;24.23;;;18.40;;
16468;SDS011;8345;50.902;6.956;2023-02-21T02:17:42;25.60;;;19.33;;
16468;SDS011;8345;50.902;6.956;2023-02-21T02:25:55;26.90;;;19.90;;
16468;SDS011;8345;50.902;6.956;2023-02-21T02:28:32;25.37;;;18.83;;
16468;SDS011;8345;50.902;6.956;2023-02-21T02:36:34;28.17;;;19.57;;
16468;SDS011;8345;50.902;6.956;2023-02-21T02:39:04;26.80;;;19.20;;
16468;SDS011;8345;50.902;6.956;2023-02-21T02:41:41;27.83;;;20.00;;
16468;SDS011;8345;50.902;6.956;2023-02-21T02:44:13;30.00;;;21.17;;
16468;SDS011;8345;50.902;6.956;2023-02-21T02:46:41;27.67;;;19.23;;
16468;SDS011;8345;50.902;6.956;2023-02-21T02:49:11;27.20;;;20.57;;
16468;SDS011;8345;50.902;6.956;2023-02-21T02:51:41;28.30;;;20.60;;
16468;SDS011;8345;50.902;6.956;2023-02-21T02:54:08;27.93;;;20.00;;
16468;SDS011;8345;50.902;6.956;2023-02-21T02:56:35;27.97;;;20.70;;
16468;SDS011;8345;50.902;6.956;2023-02-21T02:59:03;30.50;;;20.67;;
16468;SDS011;8345;50.902;6.956;2023-02-21T03:01:37;30.10;;;21.77;;
16468;SDS011;8345;50.902;6.956;2023-02-21T03:04:13;30.37;;;21.30;;
16468;SDS011;8345;50.902;6.956;2023-02-21T03:06:49;31.27;;;21.90;;
16468;SDS011;8345;50.902;6.956;2023-02-21T03:09:22;32.73;;;22.87;;
16468;SDS011;8345;50.902;6.956;2023-02-21T03:11:53;29.50;;;21.17;;
16468;SDS011;8345;50.902;6.956;2023-02-21T03:14:22;28.30;;;20.93;;
16468;SDS011;8345;50.902;6.956;2023-02-21T03:16:53;30.53;;;20.50;;
16468;SDS011;8345;50.902;6.956;2023-02-21T03:19:22;27.97;;;21.23;;
16468;SDS011;8345;50.902;6.956;2023-02-21T03:21:52;31.27;;;21.87;;
16468;SDS011;8345;50.902;6.956;2023-02-21T03:24:21;30.33;;;20.80;;
16468;SDS011;8345;50.902;6.956;2023-02-21T03:26:50;29.40;;;21.27;;
16468;SDS011;8345;50.902;6.956;2023-02-21T03:29:18;30.23;;;21.03;;
16468;SDS011;8345;50.902;6.956;2023-02-21T03:31:47;30.10;;;21.70;;
16468;SDS011;8345;50.902;6.956;2023-02-21T03:34:15;33.33;;;21.40;;
16468;SDS011;8345;50.902;6.956;2023-02-21T03:36:42;29.67;;;21.03;;
16468;SDS011;8345;50.902;6.956;2023-02-21T03:39:12;31.73;;;21.50;;
16468;SDS011;8345;50.902;6.956;2023-02-21T03:41:39;30.07;;;20.63;;
16468;SDS011;8345;50.902;6.956;2023-02-21T03:44:06;29.87;;;21.77;;
16468;SDS011;8345;50.902;6.956;2023-02-21T03:46:33;31.37;;;21.67;;
16468;SDS011;8345;50.902;6.956;2023-02-21T03:49:00;31.60;;;21.43;;
16468;SDS011;8345;50.902;6.956;2023-02-21T03:51:28;29.67;;;21.20;;
16468;SDS011;8345;50.902;6.956;2023-02-21T03:53:55;30.20;;;22.30;;
16468;SDS011;8345;50.902;6.956;2023-02-21T03:56:23;29.10;;;20.50;;
16468;SDS011;8345;50.902;6.956;2023-02-21T03:58:50;29.27;;;20.57;;
16468;SDS011;8345;50.902;6.956;2023-02-21T04:01:17;27.53;;;20.33;;
16468;SDS011;8345;50.902;6.956;2023-02-21T04:03:45;27.63;;;19.87;;
16468;SDS011;8345;50.902;6.956;2023-02-21T04:06:12;27.53;;;19.97;;
16468;SDS011;8345;50.902;6.956;2023-02-21T04:08:39;29.50;;;21.53;;
16468;SDS011;8345;50.902;6.956;2023-02-21T04:11:06;26.83;;;20.00;;
16468;SDS011;8345;50.902;6.956;2023-02-21T04:13:35;28.33;;;20.13;;
16468;SDS011;8345;50.902;6.956;2023-02-21T04:16:02;29.10;;;20.30;;
16468;SDS011;8345;50.902;6.956;2023-02-21T04:18:29;31.40;;;19.57;;
16468;SDS011;8345;50.902;6.956;2023-02-21T04:20:57;29.93;;;20.63;;
16468;SDS011;8345;50.902;6.956;2023-02-21T04:23:24;27.17;;;19.53;;
16468;SDS011;8345;50.902;6.956;2023-02-21T04:25:51;26.97;;;19.90;;
16468;SDS011;8345;50.902;6.956;2023-02-21T04:28:18;28.30;;;20.00;;
16468;SDS011;8345;50.902;6.956;2023-02-21T04:30:47;26.13;;;21.00;;
16468;SDS011;8345;50.902;6.956;2023-02-21T04:33:14;24.13;;;19.47;;
16468;SDS011;8345;50.902;6.956;2023-02-21T04:35:41;26.20;;;20.17;;
16468;SDS011;8345;50.902;6.956;2023-02-21T04:38:08;25.90;;;20.07;;
16468;SDS011;8345;50.902;6.956;2023-02-21T04:40:35;28.70;;;21.80;;
16468;SDS011;8345;50.902;6.956;2023-02-21T04:43:03;25.73;;;20.63;;
16468;SDS011;8345;50.902;6.956;2023-02-21T04:45:30;27.83;;;21.10;;
16468;SDS011;8345;50.902;6.956;2023-02-21T04:47:58;27.20;;;20.40;;
16468;SDS011;8345;50.902;6.956;2023-02-21T04:50:25;27.33;;;20.90;;
16468;SDS011;8345;50.902;6.956;2023-02-21T04:52:53;26.70;;;21.00;;
16468;SDS011;8345;50.902;6.956;2023-02-21T04:55:20;24.47;;;19.10;;
16468;SDS011;8345;50.902;6.956;2023-02-21T04:57:48;27.83;;;21.53;;
16468;SDS011;8345;50.902;6.956;2023-02-21T05:00:15;27.30;;;20.10;;
16468;SDS011;8345;50.902;6.956;2023-02-21T05:02:43;28.63;;;20.97;;
16468;SDS011;8345;50.902;6.956;2023-02-21T05:05:11;27.27;;;20.53;;
16468;SDS011;8345;50.902;6.956;2023-02-21T05:07:39;25.10;;;19.27;;
16468;SDS011;8345;50.902;6.956;2023-02-21T05:10:07;26.17;;;19.77;;
16468;SDS011;8345;50.902;6.956;2023-02-21T05:12:35;28.57;;;20.87;;
16468;SDS011;8345;50.902;6.956;2023-02-21T05:15:03;25.17;;;19.83;;
16468;SDS011;8345;50.902;6.956;2023-02-21T05:17:31;28.80;;;20.23;;
16468;SDS011;8345;50.902;6.956;2023-02-21T05:19:58;28.20;;;19.70;;
16468;SDS011;8345;50.902;6.956;2023-02-21T05:22:27;26.33;;;19.40;;
16468;SDS011;8345;50.902;6.956;2023-02-21T05:24:54;24.97;;;19.03;;
16468;SDS011;8345;50.902;6.956;2023-02-21T05:27:21;26.37;;;19.13;;
16468;SDS011;8345;50.902;6.956;2023-02-21T05:29:49;25.67;;;18.67;;
16468;SDS011;8345;50.902;6.956;2023-02-21T05:32:18;26.73;;;18.70;;
16468;SDS011;8345;50.902;6.956;2023-02-21T05:34:45;25.73;;;18.13;;
16468;SDS011;8345;50.902;6.956;2023-02-21T05:37:12;25.70;;;19.23;;
16468;SDS011;8345;50.902;6.956;2023-02-21T05:39:41;26.43;;;19.07;;
16468;SDS011;8345;50.902;6.956;2023-02-21T05:42:08;26.00;;;18.23;;
16468;SDS011;8345;50.902;6.956;2023-02-21T05:44:35;24.63;;;18.60;;
16468;SDS011;8345;50.902;6.956;2023-02-21T05:47:02;25.83;;;18.83;;
16468;SDS011;8345;50.902;6.956;2023-02-21T05:49:31;26.23;;;18.77;;
16468;SDS011;8345;50.902;6.956;2023-02-21T05:51:58;27.90;;;19.33;;
16468;SDS011;8345;50.902;6.956;2023-02-21T05:54:25;28.23;;;19.07;;
16468;SDS011;8345;50.902;6.956;2023-02-21T05:56:54;26.93;;;18.40;;
16468;SDS011;8345;50.902;6.956;2023-02-21T05:59:21;32.47;;;20.70;;
16468;SDS011;8345;50.902;6.956;2023-02-21T06:01:48;27.90;;;18.87;;
16468;SDS011;8345;50.902;6.956;2023-02-21T06:04:16;26.00;;;19.10;;
16468;SDS011;8345;50.902;6.956;2023-02-21T06:06:43;28.13;;;19.43;;
16468;SDS011;8345;50.902;6.956;2023-02-21T06:09:11;22.60;;;18.50;;
16468;SDS011;8345;50.902;6.956;2023-02-21T06:11:38;25.27;;;18.33;;
16468;SDS011;8345;50.902;6.956;2023-02-21T06:14:07;24.43;;;18.20;;
16468;SDS011;8345;50.902;6.956;2023-02-21T06:16:35;24.43;;;18.13;;
16468;SDS011;8345;50.902;6.956;2023-02-21T06:19:03;25.77;;;18.93;;
16468;SDS011;8345;50.902;6.956;2023-02-21T06:21:31;25.23;;;18.60;;
16468;SDS011;8345;50.902;6.956;2023-02-21T06:23:59;24.60;;;19.10;;
16468;SDS011;8345;50.902;6.956;2023-02-21T06:26:27;26.77;;;17.97;;
16468;SDS011;8345;50.902;6.956;2023-02-21T06:28:54;28.90;;;20.17;;
16468;SDS011;8345;50.902;6.956;2023-02-21T06:31:22;26.87;;;19.57;;
16468;SDS011;8345;50.902;6.956;2023-02-21T06:33:50;28.47;;;20.50;;
16468;SDS011;8345;50.902;6.956;2023-02-21T06:36:18;28.27;;;20.37;;
16468;SDS011;8345;50.902;6.956;2023-02-21T06:38:46;33.93;;;21.90;;
16468;SDS011;8345;50.902;6.956;2023-02-21T06:41:15;36.83;;;30.13;;
16468;SDS011;8345;50.902;6.956;2023-02-21T06:43:42;32.33;;;25.57;;
16468;SDS011;8345;50.902;6.956;2023-02-21T06:46:14;30.73;;;22.70;;
16468;SDS011;8345;50.902;6.956;2023-02-21T06:48:42;34.63;;;24.13;;
16468;SDS011;8345;50.902;6.956;2023-02-21T06:51:09;34.53;;;23.93;;
16468;SDS011;8345;50.902;6.956;2023-02-21T06:53:38;37.03;;;24.07;;
16468;SDS011;8345;50.902;6.956;2023-02-21T06:56:06;34.43;;;23.60;;
16468;SDS011;8345;50.902;6.956;2023-02-21T06:58:33;39.87;;;24.60;;
16468;SDS011;8345;50.902;6.956;2023-02-21T07:01:00;35.65;;;26.45;;
16468;SDS011;8345;50.902;6.956;2023-02-21T07:03:27;35.57;;;25.57;;
16468;SDS011;8345;50.902;6.956;2023-02-21T07:05:56;133.10;;;89.40;;
16468;SDS011;8345;50.902;6.956;2023-02-21T07:08:23;56.17;;;34.13;;
16468;SDS011;8345;50.902;6.956;2023-02-21T07:10:51;57.23;;;38.90;;
16468;SDS011;8345;50.902;6.956;2023-02-21T07:13:18;46.60;;;33.80;;
16468;SDS011;8345;50.902;6.956;2023-02-21T07:15:45;53.97;;;36.47;;
16468;SDS011;8345;50.902;6.956;2023-02-21T07:18:12;52.93;;;36.60;;
16468;SDS011;8345;50.902;6.956;2023-02-21T07:20:40;49.60;;;34.93;;
16468;SDS011;8345;50.902;6.956;2023-02-21T07:23:08;52.00;;;34.50;;
16468;SDS011;8345;50.902;6.956;2023-02-21T07:25:35;47.17;;;33.27;;
16468;SDS011;8345;50.902;6.956;2023-02-21T07:28:03;44.87;;;30.73;;
16468;SDS011;8345;50.902;6.956;2023-02-21T07:30:30;41.93;;;30.47;;
16468;SDS011;8345;50.902;6.956;2023-02-21T07:32:58;40.87;;;30.10;;
16468;SDS011;8345;50.902;6.956;2023-02-21T07:35:25;40.63;;;28.50;;
16468;SDS011;8345;50.902;6.956;2023-02-21T07:37:52;36.13;;;26.67;;
16468;SDS011;8345;50.902;6.956;2023-02-21T07:40:21;36.97;;;27.60;;
16468;SDS011;8345;50.902;6.956;2023-02-21T07:42:48;38.50;;;27.33;;
16468;SDS011;8345;50.902;6.956;2023-02-21T07:45:15;34.90;;;27.33;;
16468;SDS011;8345;50.902;6.956;2023-02-21T07:47:43;37.47;;;26.70;;
16468;SDS011;8345;50.902;6.956;2023-02-21T07:50:11;37.77;;;26.50;;
16468;SDS011;8345;50.902;6.956;2023-02-21T07:52:39;35.40;;;24.90;;
16468;SDS011;8345;50.902;6.956;2023-02-21T07:55:06;39.73;;;25.33;;
16468;SDS011;8345;50.902;6.956;2023-02-21T07:57:35;37.00;;;25.20;;
16468;SDS011;8345;50.902;6.956;2023-02-21T08:00:02;40.13;;;26.00;;
16468;SDS011;8345;50.902;6.956;2023-02-21T08:02:29;38.70;;;26.07;;
16468;SDS011;8345;50.902;6.956;2023-02-21T08:04:56;39.40;;;25.93;;
16468;SDS011;8345;50.902;6.956;2023-02-21T08:07:23;36.57;;;23.60;;
16468;SDS011;8345;50.902;6.956;2023-02-21T08:09:51;37.43;;;25.40;;
16468;SDS011;8345;50.902;6.956;2023-02-21T08:12:18;35.93;;;25.17;;
16468;SDS011;8345;50.902;6.956;2023-02-21T08:14:46;34.83;;;24.23;;
16468;SDS011;8345;50.902;6.956;2023-02-21T08:17:14;35.97;;;25.07;;
16468;SDS011;8345;50.902;6.956;2023-02-21T08:19:41;36.40;;;24.87;;
16468;SDS011;8345;50.902;6.956;2023-02-21T08:22:09;36.77;;;24.53;;
16468;SDS011;8345;50.902;6.956;2023-02-21T08:24:36;34.83;;;23.90;;
16468;SDS011;8345;50.902;6.956;2023-02-21T08:27:04;32.43;;;23.60;;
16468;SDS011;8345;50.902;6.956;2023-02-21T08:29:31;34.33;;;23.47;;
16468;SDS011;8345;50.902;6.956;2023-02-21T08:32:00;34.73;;;24.60;;
16468;SDS011;8345;50.902;6.956;2023-02-21T08:34:27;35.47;;;24.13;;
16468;SDS011;8345;50.902;6.956;2023-02-21T08:36:57;33.67;;;23.77;;
16468;SDS011;8345;50.902;6.956;2023-02-21T08:39:25;34.10;;;24.10;;
16468;SDS011;8345;50.902;6.956;2023-02-21T08:41:54;35.60;;;24.10;;
16468;SDS011;8345;50.902;6.956;2023-02-21T08:44:21;36.47;;;23.97;;
16468;SDS011;8345;50.902;6.956;2023-02-21T08:46:49;34.13;;;23.53;;
16468;SDS011;8345;50.902;6.956;2023-02-21T08:49:17;33.50;;;22.13;;
16468;SDS011;8345;50.902;6.956;2023-02-21T08:51:45;33.77;;;22.27;;
16468;SDS011;8345;50.902;6.956;2023-02-21T08:54:12;31.87;;;23.07;;
16468;SDS011;8345;50.902;6.956;2023-02-21T08:56:39;35.37;;;22.97;;
16468;SDS011;8345;50.902;6.956;2023-02-21T08:59:07;33.37;;;23.10;;
16468;SDS011;8345;50.902;6.956;2023-02-21T09:01:34;33.03;;;22.70;;
16468;SDS011;8345;50.902;6.956;2023-02-21T09:04:02;34.73;;;22.27;;
16468;SDS011;8345;50.902;6.956;2023-02-21T09:06:31;34.30;;;23.70;;
16468;SDS011;8345;50.902;6.956;2023-02-21T09:08:58;34.93;;;24.33;;
16468;SDS011;8345;50.902;6.956;2023-02-21T09:11:26;37.70;;;25.33;;
16468;SDS011;8345;50.902;6.956;2023-02-21T09:13:53;38.10;;;24.30;;
16468;SDS011;8345;50.902;6.956;2023-02-21T09:16:20;49.63;;;29.50;;
16468;SDS011;8345;50.902;6.956;2023-02-21T09:18:54;46.33;;;29.40;;
16468;SDS011;8345;50.902;6.956;2023-02-21T09:21:23;46.27;;;29.20;;
16468;SDS011;8345;50.902;6.956;2023-02-21T09:23:52;47.33;;;30.27;;
16468;SDS011;8345;50.902;6.956;2023-02-21T09:26:19;49.03;;;31.73;;
16468;SDS011;8345;50.902;6.956;2023-02-21T09:28:48;47.20;;;30.13;;
16468;SDS011;8345;50.902;6.956;2023-02-21T09:31:15;46.53;;;29.43;;
16468;SDS011;8345;50.902;6.956;2023-02-21T09:33:42;45.00;;;29.47;;
16468;SDS011;8345;50.902;6.956;2023-02-21T09:36:10;45.37;;;26.97;;
16468;SDS011;8345;50.902;6.956;2023-02-21T09:38:37;45.40;;;27.90;;
16468;SDS011;8345;50.902;6.956;2023-02-21T09:41:07;39.10;;;27.47;;
16468;SDS011;8345;50.902;6.956;2023-02-21T09:43:36;41.43;;;27.70;;
16468;SDS011;8345;50.902;6.956;2023-02-21T09:46:04;44.43;;;26.90;;
16468;SDS011;8345;50.902;6.956;2023-02-21T09:48:33;38.37;;;25.07;;
16468;SDS011;8345;50.902;6.956;2023-02-21T09:51:01;39.37;;;26.10;;
16468;SDS011;8345;50.902;6.956;2023-02-21T09:53:31;34.00;;;23.83;;
16468;SDS011;8345;50.902;6.956;2023-02-21T09:56:01;39.07;;;25.27;;
16468;SDS011;8345;50.902;6.956;2023-02-21T09:58:31;40.67;;;25.40;;
16468;SDS011;8345;50.902;6.956;2023-02-21T10:01:00;39.67;;;24.57;;
16468;SDS011;8345;50.902;6.956;2023-02-21T10:03:33;40.27;;;26.80;;
16468;SDS011;8345;50.902;6.956;2023-02-21T10:06:09;41.33;;;25.57;;
16468;SDS011;8345;50.902;6.956;2023-02-21T10:08:39;39.50;;;25.30;;
16468;SDS011;8345;50.902;6.956;2023-02-21T10:11:13;41.37;;;25.83;;
16468;SDS011;8345;50.902;6.956;2023-02-21T10:13:42;39.80;;;24.60;;
16468;SDS011;8345;50.902;6.956;2023-02-21T10:16:13;43.63;;;25.97;;
16468;SDS011;8345;50.902;6.956;2023-02-21T10:18:44;42.13;;;26.43;;
16468;SDS011;8345;50.902;6.956;2023-02-21T10:21:13;41.47;;;27.30;;
16468;SDS011;8345;50.902;6.956;2023-02-21T10:23:43;41.20;;;25.93;;
16468;SDS011;8345;50.902;6.956;2023-02-21T10:26:12;40.30;;;26.47;;
16468;SDS011;8345;50.902;6.956;2023-02-21T10:28:41;45.30;;;27.53;;
16468;SDS011;8345;50.902;6.956;2023-02-21T10:31:10;43.17;;;25.73;;
16468;SDS011;8345;50.902;6.956;2023-02-21T10:33:38;44.23;;;28.00;;
16468;SDS011;8345;50.902;6.956;2023-02-21T10:36:09;46.57;;;30.10;;
16468;SDS011;8345;50.902;6.956;2023-02-21T10:38:37;55.07;;;32.23;;
16468;SDS011;8345;50.902;6.956;2023-02-21T10:41:05;46.87;;;29.10;;
16468;SDS011;8345;50.902;6.956;2023-02-21T10:43:33;47.33;;;29.83;;
16468;SDS011;8345;50.902;6.956;2023-02-21T10:46:04;47.63;;;28.30;;
16468;SDS011;8345;50.902;6.956;2023-02-21T10:48:35;45.83;;;28.07;;
16468;SDS011;8345;50.902;6.956;2023-02-21T10:51:07;46.20;;;28.70;;
16468;SDS011;8345;50.902;6.956;2023-02-21T10:53:35;47.43;;;30.43;;
16468;SDS011;8345;50.902;6.956;2023-02-21T10:56:14;50.37;;;31.53;;
16468;SDS011;8345;50.902;6.956;2023-02-21T10:58:45;47.10;;;30.13;;
16468;SDS011;8345;50.902;6.956;2023-02-21T11:01:16;51.20;;;31.83;;
16468;SDS011;8345;50.902;6.956;2023-02-21T11:03:44;51.10;;;32.43;;
16468;SDS011;8345;50.902;6.956;2023-02-21T11:06:20;53.40;;;31.53;;
16468;SDS011;8345;50.902;6.956;2023-02-21T11:08:48;48.20;;;31.20;;
16468;SDS011;8345;50.902;6.956;2023-02-21T11:11:15;51.87;;;32.80;;
16468;SDS011;8345;50.902;6.956;2023-02-21T11:13:42;48.57;;;32.37;;
16468;SDS011;8345;50.902;6.956;2023-02-21T11:16:10;52.87;;;33.13;;
16468;SDS011;8345;50.902;6.956;2023-02-21T11:18:39;51.17;;;32.57;;
16468;SDS011;8345;50.902;6.956;2023-02-21T11:21:09;48.83;;;32.50;;
16468;SDS011;8345;50.902;6.956;2023-02-21T11:23:37;50.77;;;32.70;;
16468;SDS011;8345;50.902;6.956;2023-02-21T11:26:10;49.67;;;32.37;;
16468;SDS011;8345;50.902;6.956;2023-02-21T11:28:39;49.73;;;33.67;;
16468;SDS011;8345;50.902;6.956;2023-02-21T11:31:12;49.50;;;33.50;;
16468;SDS011;8345;50.902;6.956;2023-02-21T11:33:43;51.97;;;35.17;;
16468;SDS011;8345;50.902;6.956;2023-02-21T11:36:13;51.90;;;32.57;;
16468;SDS011;8345;50.902;6.956;2023-02-21T11:38:41;52.27;;;35.37;;
16468;SDS011;8345;50.902;6.956;2023-02-21T11:41:17;48.07;;;34.37;;
16468;SDS011;8345;50.902;6.956;2023-02-21T11:43:47;51.07;;;34.37;;
16468;SDS011;8345;50.902;6.956;2023-02-21T11:46:16;51.17;;;34.10;;
16468;SDS011;8345;50.902;6.956;2023-02-21T11:48:48;52.63;;;35.47;;
16468;SDS011;8345;50.902;6.956;2023-02-21T11:51:21;49.80;;;34.33;;
16468;SDS011;8345;50.902;6.956;2023-02-21T11:53:51;51.27;;;35.77;;
16468;SDS011;8345;50.902;6.956;2023-02-21T11:56:23;49.53;;;33.87;;
16468;SDS011;8345;50.902;6.956;2023-02-21T11:58:54;48.27;;;34.60;;
16468;SDS011;8345;50.902;6.956;2023-02-21T12:01:23;46.37;;;33.07;;
16468;SDS011;8345;50.902;6.956;2023-02-21T12:04:02;50.67;;;33.53;;
16468;SDS011;8345;50.902;6.956;2023-02-21T12:06:32;50.93;;;34.13;;
16468;SDS011;8345;50.902;6.956;2023-02-21T12:09:06;51.03;;;33.80;;
16468;SDS011;8345;50.902;6.956;2023-02-21T12:11:36;50.90;;;34.20;;
16468;SDS011;8345;50.902;6.956;2023-02-21T12:14:18;52.30;;;35.87;;
16468;SDS011;8345;50.902;6.956;2023-02-21T12:16:51;50.20;;;33.87;;
16468;SDS011;8345;50.902;6.956;2023-02-21T12:22:06;49.17;;;34.60;;
16468;SDS011;8345;50.902;6.956;2023-02-21T12:24:47;48.27;;;35.37;;
16468;SDS011;8345;50.902;6.956;2023-02-21T12:27:21;51.30;;;34.27;;
16468;SDS011;8345;50.902;6.956;2023-02-21T12:29:57;51.10;;;35.43;;
16468;SDS011;8345;50.902;6.956;2023-02-21T12:32:30;46.33;;;34.63;;
16468;SDS011;8345;50.902;6.956;2023-02-21T12:35:05;46.30;;;34.10;;
16468;SDS011;8345;50.902;6.956;2023-02-21T12:37:41;46.17;;;33.80;;
16468;SDS011;8345;50.902;6.956;2023-02-21T12:40:14;51.00;;;33.00;;
16468;SDS011;8345;50.902;6.956;2023-02-21T12:42:48;50.23;;;34.27;;
16468;SDS011;8345;50.902;6.956;2023-02-21T12:45:22;47.63;;;33.60;;
16468;SDS011;8345;50.902;6.956;2023-02-21T12:47:53;48.23;;;34.10;;
16468;SDS011;8345;50.902;6.956;2023-02-21T12:50:22;50.47;;;34.43;;
16468;SDS011;8345;50.902;6.956;2023-02-21T12:52:53;47.77;;;34.07;;
16468;SDS011;8345;50.902;6.956;2023-02-21T12:55:28;48.40;;;34.33;;
16468;SDS011;8345;50.902;6.956;2023-02-21T12:57:58;45.67;;;33.23;;
16468;SDS011;8345;50.902;6.956;2023-02-21T13:00:27;49.30;;;33.93;;
16468;SDS011;8345;50.902;6.956;2023-02-21T13:03:00;50.57;;;34.70;;
16468;SDS011;8345;50.902;6.956;2023-02-21T13:05:32;45.57;;;32.93;;
16468;SDS011;8345;50.902;6.956;2023-02-21T13:08:02;46.20;;;33.87;;
16468;SDS011;8345;50.902;6.956;2023-02-21T13:10:33;51.30;;;34.40;;
16468;SDS011;8345;50.902;6.956;2023-02-21T13:13:02;46.63;;;33.40;;
16468;SDS011;8345;50.902;6.956;2023-02-21T13:15:32;43.70;;;32.43;;
16468;SDS011;8345;50.902;6.956;2023-02-21T13:18:02;46.37;;;33.40;;
16468;SDS011;8345;50.902;6.956;2023-02-21T13:20:33;45.90;;;33.53;;
16468;SDS011;8345;50.902;6.956;2023-02-21T13:26:18;44.27;;;31.73;;
16468;SDS011;8345;50.902;6.956;2023-02-21T13:28:50;44.87;;;32.20;;
16468;SDS011;8345;50.902;6.956;2023-02-21T13:31:18;44.70;;;31.60;;
16468;SDS011;8345;50.902;6.956;2023-02-21T13:33:48;42.57;;;32.07;;
16468;SDS011;8345;50.902;6.956;2023-02-21T13:36:22;43.80;;;32.40;;
16468;SDS011;8345;50.902;6.956;2023-02-21T13:38:57;43.13;;;31.73;;
16468;SDS011;8345;50.902;6.956;2023-02-21T13:41:27;43.63;;;31.97;;
16468;SDS011;8345;50.902;6.956;2023-02-21T13:43:59;41.73;;;30.67;;
16468;SDS011;8345;50.902;6.956;2023-02-21T13:52:23;46.50;;;33.83;;
16468;SDS011;8345;50.902;6.956;2023-02-21T13:57:40;50.07;;;33.73;;
16468;SDS011;8345;50.902;6.956;2023-02-21T14:02:54;46.27;;;31.97;;
16468;SDS011;8345;50.902;6.956;2023-02-21T14:05:21;43.83;;;32.07;;
16468;SDS011;8345;50.902;6.956;2023-02-21T14:07:56;45.73;;;31.97;;
16468;SDS011;8345;50.902;6.956;2023-02-21T14:10:30;45.30;;;31.73;;
16468;SDS011;8345;50.902;6.956;2023-02-21T14:13:00;42.53;;;29.97;;
16468;SDS011;8345;50.902;6.956;2023-02-21T14:15:40;44.00;;;31.97;;
16468;SDS011;8345;50.902;6.956;2023-02-21T14:18:13;50.13;;;32.73;;
16468;SDS011;8345;50.902;6.956;2023-02-21T14:20:41;48.83;;;32.87;;
16468;SDS011;8345;50.902;6.956;2023-02-21T14:23:13;51.80;;;33.07;;
16468;SDS011;8345;50.902;6.956;2023-02-21T14:25:41;46.93;;;32.67;;
16468;SDS011;8345;50.902;6.956;2023-02-21T14:31:07;48.10;;;33.43;;
16468;SDS011;8345;50.902;6.956;2023-02-21T14:33:37;50.73;;;33.83;;
16468;SDS011;8345;50.902;6.956;2023-02-21T14:36:11;52.47;;;33.57;;
16468;SDS011;8345;50.902;6.956;2023-02-21T14:38:40;51.70;;;34.20;;
16468;SDS011;8345;50.902;6.956;2023-02-21T14:41:12;49.70;;;33.67;;
16468;SDS011;8345;50.902;6.956;2023-02-21T14:43:54;49.23;;;33.20;;
16468;SDS011;8345;50.902;6.956;2023-02-21T14:46:31;51.97;;;34.30;;
16468;SDS011;8345;50.902;6.956;2023-02-21T14:51:51;49.90;;;33.87;;
16468;SDS011;8345;50.902;6.956;2023-02-21T14:54:43;51.67;;;35.10;;
16468;SDS011;8345;50.902;6.956;2023-02-21T14:57:25;56.90;;;36.23;;
16468;SDS011;8345;50.902;6.956;2023-02-21T15:00:03;51.70;;;34.67;;
16468;SDS011;8345;50.902;6.956;2023-02-21T15:02:40;58.13;;;34.57;;
16468;SDS011;8345;50.902;6.956;2023-02-21T15:05:13;57.43;;;36.70;;
16468;SDS011;8345;50.902;6.956;2023-02-21T15:07:44;63.00;;;38.53;;
16468;SDS011;8345;50.902;6.956;2023-02-21T15:10:16;57.57;;;36.17;;
16468;SDS011;8345;50.902;6.956;2023-02-21T15:12:45;60.13;;;36.93;;
16468;SDS011;8345;50.902;6.956;2023-02-21T15:15:15;56.97;;;38.27;;
16468;SDS011;8345;50.902;6.956;2023-02-21T15:17:54;56.97;;;37.03;;
16468;SDS011;8345;50.902;6.956;2023-02-21T15:20:22;61.43;;;35.90;;
16468;SDS011;8345;50.902;6.956;2023-02-21T15:22:56;55.93;;;36.40;;
16468;SDS011;8345;50.902;6.956;2023-02-21T15:25:25;54.80;;;35.87;;
16468;SDS011;8345;50.902;6.956;2023-02-21T15:27:58;56.90;;;37.30;;
16468;SDS011;8345;50.902;6.956;2023-02-21T15:30:27;55.77;;;35.17;;
16468;SDS011;8345;50.902;6.956;2023-02-21T15:32:58;58.47;;;36.10;;
16468;SDS011;8345;50.902;6.956;2023-02-21T15:35:26;58.13;;;36.83;;